Mineola, Texas
Current Conditions -  °F | °C
As of 9:15 AM on Thursday 18 Dec 2014 (Local Time) from KJDD Reporting Station
Haze Haze  
Wind Chill: 45°   Ceiling: 400
Heat Index: 45°   Visibility: 6mi
Dew Point: 45°   Wind: 0mph
Humidity: 100%   Direction: NA
Pressure: 30.18"   Gusts: NA
Location:  32.66°N, 95.49°W
Report Text: KJDD 181515Z AUTO 00000KT 6SM BR OVC004 07/07 A3018 RMK AO2
Loading
Personal Weather Stations






























Interactive Weather Map New forecast layout! Learn more

10-Day Weather Forecast

Advertisements
Track Severe Weather on mobile